METAR Formatted Surface Weather Observation
Issued by NWS

Home | Current Version | Previous Version | Text Only | Print | Product List | Glossary On
Versions: 1 2 3 4 5 6 7 8 9 10 11 12 13 14 15 16 17 18 19 20 21
000
SAUS45 KFGZ 011058 COR
MTRRQE
METAR KRQE 011053Z AUTO 00000KT 10SM BKN120 16/13 A3030 RMK AO2
SLP154 T01610128 TSNO



USA.gov is the U.S. government's official web portal to all federal, state and local government web resources and services.